Time;durP1;ratioP1;P1;durP2;ratioP2;P2;SDS_P1;SDS_P2;PMS_P1;PMS_P2;Temp;Humidity;BMP_temperature;BMP_pressure;BME280_temperature;BME280_humidity;BME280_pressure;Samples;Min_cycle;Max_cycle;Signal;HPM_P1;HPM_P2
2023/01/15 00:01:37;;;;;;;1.25;0.60;;;9.70;99.90;;;;;;4905097;29;20082;-74
2023/01/15 00:04:04;;;;;;;0.95;0.50;;;9.70;99.90;;;;;;4917072;29;20040;-74
2023/01/15 00:06:31;;;;;;;1.42;0.65;;;9.70;99.90;;;;;;4927570;29;20055;-73
2023/01/15 00:08:57;;;;;;;2.65;0.70;;;9.60;99.90;;;;;;4910327;29;20392;-75
2023/01/15 00:11:23;;;;;;;2.80;1.05;;;9.70;99.90;;;;;;4919963;29;20047;-74
2023/01/15 00:13:49;;;;;;;2.08;0.90;;;9.60;99.90;;;;;;4916591;29;20084;-73
2023/01/15 00:16:16;;;;;;;1.52;0.52;;;9.70;99.90;;;;;;4913230;29;20435;-72
2023/01/15 00:18:42;;;;;;;1.58;0.50;;;9.70;99.90;;;;;;4906984;29;20357;-74
2023/01/15 00:21:13;;;;;;;1.77;0.90;;;9.70;99.90;;;;;;4932398;29;20054;-74
2023/01/15 00:29:16;;;;;;;2.20;0.75;;;9.80;99.90;;;;;;4905305;29;20724;-73
2023/01/15 00:31:43;;;;;;;2.17;0.50;;;9.70;99.90;;;;;;4900509;29;20661;-74
2023/01/15 00:34:09;;;;;;;1.20;0.75;;;9.60;99.90;;;;;;4907132;29;20409;-73
2023/01/15 00:36:36;;;;;;;0.77;0.60;;;9.60;99.90;;;;;;4916628;29;20051;-74
2023/01/15 00:39:03;;;;;;;1.95;1.00;;;9.60;99.90;;;;;;4942692;28;20051;-74
2023/01/15 00:41:29;;;;;;;1.17;0.60;;;9.60;99.90;;;;;;4906191;29;20463;-73
2023/01/15 00:43:56;;;;;;;0.63;0.43;;;9.50;99.90;;;;;;4915499;29;20055;-73
2023/01/15 00:46:21;;;;;;;1.30;0.70;;;9.60;99.90;;;;;;4911085;29;20377;-74
2023/01/15 00:48:47;;;;;;;2.67;0.80;;;9.50;99.90;;;;;;4924876;29;20042;-73
2023/01/15 00:51:13;;;;;;;4.82;0.80;;;9.60;99.90;;;;;;4932136;29;20040;-73
2023/01/15 00:53:39;;;;;;;2.92;0.75;;;9.60;99.90;;;;;;4916953;29;20126;-73
2023/01/15 00:56:05;;;;;;;2.15;1.15;;;9.50;99.90;;;;;;4910728;29;20106;-74
2023/01/15 00:58:31;;;;;;;1.92;0.80;;;9.50;99.90;;;;;;4916914;29;20062;-73
2023/01/15 01:00:57;;;;;;;2.38;0.90;;;9.50;99.90;;;;;;4900724;29;20677;-73
2023/01/15 01:03:22;;;;;;;2.25;0.70;;;9.50;99.90;;;;;;4931641;29;20044;-74
2023/01/15 01:05:48;;;;;;;4.38;0.73;;;9.30;99.90;;;;;;4898562;29;20421;-73
2023/01/15 01:08:14;;;;;;;3.47;1.60;;;8.90;99.90;;;;;;4925320;29;20860;-73
2023/01/15 01:10:40;;;;;;;2.55;1.20;;;8.80;99.90;;;;;;4909537;29;20055;-74
2023/01/15 01:13:06;;;;;;;3.53;1.23;;;8.70;99.90;;;;;;4918456;29;20068;-73
2023/01/15 01:15:35;;;;;;;1.95;1.08;;;8.50;99.90;;;;;;4937897;29;20048;-73
2023/01/15 01:18:01;;;;;;;2.78;0.82;;;8.40;99.90;;;;;;4909382;29;20426;-73
2023/01/15 01:20:27;;;;;;;6.28;0.80;;;8.20;99.90;;;;;;4910161;29;20115;-74
2023/01/15 01:22:53;;;;;;;2.90;0.80;;;8.00;99.90;;;;;;4914464;29;20059;-73
2023/01/15 01:25:18;;;;;;;1.65;0.70;;;7.90;99.90;;;;;;4918223;29;20047;-73
2023/01/15 01:27:45;;;;;;;2.10;0.73;;;7.80;99.90;;;;;;4936697;29;20063;-74
2023/01/15 01:30:14;;;;;;;1.85;0.55;;;7.80;99.90;;;;;;4905619;29;20384;-73
2023/01/15 01:32:42;;;;;;;2.88;0.73;;;7.80;99.90;;;;;;4908902;29;20118;-73
2023/01/15 01:35:08;;;;;;;3.05;0.70;;;7.60;99.90;;;;;;4920191;29;20055;-73
2023/01/15 01:37:35;;;;;;;2.10;0.70;;;7.50;99.90;;;;;;4927056;29;20061;-73
2023/01/15 01:40:01;;;;;;;3.40;1.08;;;7.40;99.90;;;;;;4919752;29;20472;-74
2023/01/15 01:42:26;;;;;;;1.50;0.50;;;7.30;99.90;;;;;;4913928;29;20048;-73
2023/01/15 01:45:08;;;;;;;4.10;0.70;;;7.30;99.90;;;;;;4923930;29;20050;-73
2023/01/15 01:47:34;;;;;;;2.83;0.70;;;7.20;99.90;;;;;;4913146;29;20055;-76
2023/01/15 01:50:11;;;;;;;1.50;0.70;;;7.20;99.90;;;;;;4912354;29;20047;-75
2023/01/15 01:52:48;;;;;;;4.00;0.77;;;7.10;99.90;;;;;;4917360;29;20055;-75
2023/01/15 01:55:15;;;;;;;1.80;0.80;;;7.00;99.90;;;;;;4907900;29;20166;-75
2023/01/15 01:57:41;;;;;;;2.80;0.70;;;6.90;99.90;;;;;;4912706;29;20055;-75
2023/01/15 02:00:09;;;;;;;2.00;0.80;;;6.80;99.90;;;;;;4897136;29;20044;-75
2023/01/15 02:02:35;;;;;;;;;;;6.70;99.90;;;;;;4915478;29;20111;-75
2023/01/15 02:05:01;;;;;;;2.60;1.00;;;6.60;99.90;;;;;;4941258;28;19914;-75
2023/01/15 02:07:26;;;;;;;6.55;0.65;;;6.50;99.90;;;;;;4903154;29;20047;-75
2023/01/15 02:09:52;;;;;;;4.35;1.02;;;6.40;99.90;;;;;;4925966;29;20044;-75
2023/01/15 02:12:30;;;;;;;1.58;0.40;;;6.30;99.90;;;;;;4912187;29;20090;-75
2023/01/15 02:15:05;;;;;;;1.80;0.43;;;6.30;99.90;;;;;;4945920;28;20396;-74
2023/01/15 02:18:00;;;;;;;1.52;0.47;;;6.10;99.90;;;;;;4934036;29;20074;-75
2023/01/15 02:20:47;;;;;;;3.00;0.60;;;6.10;99.90;;;;;;4931990;29;20062;-75
2023/01/15 02:23:49;;;;;;;1.65;0.45;;;6.10;99.90;;;;;;4933882;29;20368;-75
2023/01/15 02:26:26;;;;;;;5.70;0.60;;;6.10;99.90;;;;;;4933970;29;20043;-75
2023/01/15 02:28:53;;;;;;;1.08;0.30;;;6.00;99.90;;;;;;4929725;29;20090;-74
2023/01/15 02:31:36;;;;;;;4.68;0.88;;;6.00;99.90;;;;;;4903994;29;20048;-75
2023/01/15 02:34:14;;;;;;;1.55;0.40;;;6.00;99.90;;;;;;4908786;29;20047;-75
2023/01/15 02:36:41;;;;;;;;;;;5.90;99.90;;;;;;4927714;29;20058;-74
2023/01/15 02:39:10;;;;;;;2.83;0.70;;;5.90;99.90;;;;;;4930239;29;20521;-75
2023/01/15 02:41:38;;;;;;;4.10;0.70;;;5.80;99.90;;;;;;4908794;29;20307;-75
2023/01/15 02:44:04;;;;;;;0.85;0.30;;;5.80;99.90;;;;;;4890218;29;20051;-75
2023/01/15 02:46:32;;;;;;;0.82;0.30;;;5.70;99.90;;;;;;4902717;29;20043;-75
2023/01/15 02:48:57;;;;;;;1.00;0.45;;;5.70;99.90;;;;;;4901743;29;20051;-75
2023/01/15 02:51:26;;;;;;;1.58;0.30;;;5.70;99.90;;;;;;4912113;29;20446;-75
2023/01/15 02:53:54;;;;;;;0.70;0.20;;;5.70;99.90;;;;;;4905932;29;20100;-75
2023/01/15 02:56:22;;;;;;;1.30;0.32;;;5.80;99.90;;;;;;4930222;29;20376;-75
2023/01/15 02:58:52;;;;;;;0.40;0.30;;;5.70;99.90;;;;;;4902253;29;20055;-74
2023/01/15 03:01:32;;;;;;;2.22;0.40;;;5.70;99.90;;;;;;4898735;29;20048;-75
2023/01/15 03:04:06;;;;;;;3.83;0.40;;;5.70;99.90;;;;;;4897918;29;20094;-74
2023/01/15 03:06:37;;;;;;;1.13;0.30;;;5.70;99.90;;;;;;4930304;29;20106;-74
2023/01/15 03:09:03;;;;;;;1.25;0.30;;;5.60;99.90;;;;;;4917146;29;20048;-75
2023/01/15 03:11:28;;;;;;;0.70;0.32;;;5.70;99.90;;;;;;4918236;29;20047;-75
2023/01/15 03:14:09;;;;;;;1.20;0.40;;;5.70;99.90;;;;;;4896274;29;20048;-74
2023/01/15 03:16:39;;;;;;;1.02;0.57;;;5.60;99.90;;;;;;4946418;28;20126;-74
2023/01/15 03:19:09;;;;;;;1.45;0.30;;;5.60;99.90;;;;;;4917265;29;20043;-74
2023/01/15 03:21:38;;;;;;;0.52;0.30;;;5.60;99.90;;;;;;4924812;29;20515;-75
2023/01/15 03:24:04;;;;;;;1.63;0.30;;;5.60;99.90;;;;;;4921230;29;20055;-75
2023/01/15 03:26:30;;;;;;;2.58;0.68;;;5.60;99.90;;;;;;4915339;29;20691;-74
2023/01/15 03:28:56;;;;;;;2.78;0.60;;;5.60;99.90;;;;;;4937112;29;20047;-75
2023/01/15 03:31:22;;;;;;;1.42;0.40;;;5.50;99.90;;;;;;4943047;29;20043;-74
2023/01/15 03:33:48;;;;;;;1.38;0.73;;;5.50;99.90;;;;;;4912494;29;20694;-75
2023/01/15 03:36:13;;;;;;;1.33;0.50;;;5.60;99.90;;;;;;4916664;29;20134;-75
2023/01/15 03:38:39;;;;;;;1.25;0.25;;;5.60;99.90;;;;;;4919875;29;20077;-75
2023/01/15 03:41:44;;;;;;;1.92;0.47;;;5.50;99.90;;;;;;4914792;29;20346;-75
2023/01/15 03:44:38;;;;;;;3.13;0.40;;;5.60;99.90;;;;;;4930608;29;20095;-75
2023/01/15 03:47:33;;;;;;;0.60;0.20;;;5.50;99.90;;;;;;4952634;28;20054;-75
2023/01/15 03:50:19;;;;;;;1.00;0.30;;;5.50;99.90;;;;;;4937422;29;20792;-75
2023/01/15 03:53:06;;;;;;;1.15;0.40;;;5.60;99.90;;;;;;4923272;29;20039;-77
2023/01/15 03:55:39;;;;;;;2.20;0.40;;;5.50;99.90;;;;;;4937318;29;20047;-74
2023/01/15 03:58:10;;;;;;;2.47;0.30;;;5.50;99.90;;;;;;4924504;29;20052;-77
2023/01/15 04:00:39;;;;;;;1.33;0.35;;;5.60;99.90;;;;;;4920819;29;20051;-76
2023/01/15 04:03:06;;;;;;;2.08;0.45;;;5.60;99.90;;;;;;4899532;29;20043;-76
2023/01/15 04:05:31;;;;;;;1.15;0.30;;;5.50;99.90;;;;;;4897252;29;20449;-76
2023/01/15 04:07:57;;;;;;;1.00;0.25;;;5.50;99.90;;;;;;4919706;29;20054;-76
2023/01/15 04:10:23;;;;;;;1.40;0.20;;;5.50;99.90;;;;;;4904149;29;20428;-75
2023/01/15 04:12:49;;;;;;;2.05;0.50;;;5.50;99.90;;;;;;4936101;29;20047;-76
2023/01/15 04:15:15;;;;;;;1.13;0.40;;;5.50;99.90;;;;;;4919394;29;20047;-74
2023/01/15 04:17:41;;;;;;;1.48;0.30;;;5.50;99.90;;;;;;4919501;29;20047;-74
2023/01/15 04:20:07;;;;;;;1.77;0.43;;;5.50;99.90;;;;;;4904484;29;20058;-76
2023/01/15 04:22:34;;;;;;;1.80;0.32;;;5.50;99.90;;;;;;4914038;29;20051;-76
2023/01/15 04:25:01;;;;;;;2.55;0.35;;;5.50;99.90;;;;;;4904042;29;20121;-74
2023/01/15 04:27:27;;;;;;;2.50;0.40;;;5.50;99.90;;;;;;4933497;29;20051;-74
2023/01/15 04:29:53;;;;;;;1.92;0.38;;;5.50;99.90;;;;;;4919996;29;20409;-74
2023/01/15 04:32:18;;;;;;;2.25;0.70;;;5.60;99.90;;;;;;4935948;29;20054;-76
2023/01/15 04:34:44;;;;;;;1.50;0.32;;;5.50;99.90;;;;;;4914341;29;20040;-74
2023/01/15 04:37:10;;;;;;;1.33;0.47;;;5.60;99.90;;;;;;4919276;29;20048;-75
2023/01/15 04:39:36;;;;;;;0.68;0.30;;;5.60;99.90;;;;;;4910434;29;20176;-75
2023/01/15 04:44:46;;;;;;;0.65;0.40;;;5.60;99.90;;;;;;4930337;29;20372;-75
2023/01/15 04:47:12;;;;;;;1.65;0.60;;;5.60;99.90;;;;;;4920491;29;20048;-75
2023/01/15 04:49:37;;;;;;;1.45;0.45;;;5.60;99.90;;;;;;4920520;29;20709;-75
2023/01/15 04:52:03;;;;;;;1.27;0.30;;;5.60;99.90;;;;;;4919437;29;20464;-75
2023/01/15 04:54:29;;;;;;;0.85;0.30;;;5.70;99.90;;;;;;4916432;29;20111;-75
2023/01/15 04:56:55;;;;;;;1.05;0.40;;;5.70;99.90;;;;;;4922404;29;20162;-75
2023/01/15 04:59:23;;;;;;;2.15;0.52;;;5.70;99.90;;;;;;4902495;29;20615;-75
2023/01/15 05:01:49;;;;;;;1.63;0.60;;;5.70;99.90;;;;;;4908132;29;20138;-75
2023/01/15 05:04:15;;;;;;;1.58;0.55;;;5.70;99.90;;;;;;4914529;29;20495;-75
2023/01/15 05:06:40;;;;;;;1.48;0.43;;;5.70;99.90;;;;;;4903039;29;20075;-74
2023/01/15 05:09:06;;;;;;;2.38;0.47;;;5.70;99.90;;;;;;4913409;29;20240;-75
2023/01/15 05:11:36;;;;;;;0.98;0.40;;;5.70;99.90;;;;;;4914456;29;20134;-75
2023/01/15 05:14:02;;;;;;;0.93;0.40;;;5.70;99.90;;;;;;4890881;29;20051;-74
2023/01/15 05:16:29;;;;;;;1.02;0.63;;;5.80;99.90;;;;;;4902888;29;20210;-75
2023/01/15 05:18:58;;;;;;;0.98;0.30;;;5.80;99.90;;;;;;4919398;29;20047;-75
2023/01/15 05:21:25;;;;;;;2.10;0.60;;;5.80;99.90;;;;;;4903309;29;20047;-75
2023/01/15 05:23:53;;;;;;;0.75;0.45;;;5.80;99.90;;;;;;4914983;29;20083;-75
2023/01/15 05:26:19;;;;;;;3.30;0.50;;;5.80;99.90;;;;;;4912933;29;20067;-75
2023/01/15 05:28:44;;;;;;;2.03;0.50;;;5.80;99.90;;;;;;4895899;29;20127;-75
2023/01/15 05:31:15;;;;;;;11.90;1.23;;;5.80;99.90;;;;;;4925236;29;20197;-75
2023/01/15 05:33:41;;;;;;;2.03;0.93;;;5.80;99.90;;;;;;4914600;29;20110;-75
2023/01/15 05:36:08;;;;;;;4.10;0.70;;;5.80;99.90;;;;;;4926812;29;20051;-75
2023/01/15 05:38:34;;;;;;;1.23;0.50;;;5.80;99.90;;;;;;4895517;29;20122;-74
2023/01/15 05:41:47;;;;;;;1.27;0.50;;;5.80;99.90;;;;;;4928530;29;20279;-74
2023/01/15 05:43:49;;;;;;;3.85;0.70;;;5.90;99.90;;;;;;4948586;28;20048;-75
2023/01/15 05:46:15;;;;;;;2.75;0.80;;;5.90;99.90;;;;;;4890220;29;20044;-75
2023/01/15 05:48:40;;;;;;;2.90;0.70;;;5.80;99.90;;;;;;4931653;29;20484;-75
2023/01/15 05:51:06;;;;;;;1.55;0.45;;;5.90;99.90;;;;;;4913977;29;20054;-75
2023/01/15 05:53:33;;;;;;;2.17;0.50;;;5.80;99.90;;;;;;4898842;29;20064;-75
2023/01/15 05:56:03;;;;;;;2.70;0.57;;;5.80;99.90;;;;;;4930429;29;20368;-75
2023/01/15 05:58:29;;;;;;;1.65;0.70;;;5.90;99.90;;;;;;4933548;29;20056;-75
2023/01/15 06:00:55;;;;;;;1.13;0.57;;;5.80;99.90;;;;;;4918598;29;20054;-75
2023/01/15 06:03:21;;;;;;;1.45;0.52;;;5.90;99.90;;;;;;4899356;29;20043;-75
2023/01/15 06:05:56;;;;;;;3.42;0.60;;;5.90;99.90;;;;;;4918598;29;20062;-75
2023/01/15 06:08:22;;;;;;;2.65;0.52;;;5.90;99.90;;;;;;4902445;29;20047;-75
2023/01/15 06:10:48;;;;;;;2.25;0.52;;;5.90;99.90;;;;;;4941269;28;20078;-75
2023/01/15 06:13:14;;;;;;;1.42;0.43;;;5.90;99.90;;;;;;4901914;29;20075;-75
2023/01/15 06:15:40;;;;;;;3.03;0.80;;;5.90;99.90;;;;;;4902785;29;20051;-76
2023/01/15 06:18:06;;;;;;;4.68;0.77;;;5.90;99.90;;;;;;4923673;29;20062;-74
2023/01/15 06:20:34;;;;;;;2.28;0.63;;;5.80;99.90;;;;;;4918695;29;20123;-75
2023/01/15 06:23:00;;;;;;;3.50;1.00;;;5.90;99.90;;;;;;4903462;29;20078;-75
2023/01/15 06:25:26;;;;;;;2.83;0.50;;;5.90;99.90;;;;;;4904763;29;20044;-75
2023/01/15 06:27:52;;;;;;;2.97;0.63;;;5.90;99.90;;;;;;4918910;29;20484;-75
2023/01/15 06:30:18;;;;;;;3.85;0.60;;;5.90;99.90;;;;;;4912953;29;20172;-75
2023/01/15 06:32:43;;;;;;;2.72;0.77;;;5.90;99.90;;;;;;4916259;29;20643;-75
2023/01/15 06:35:09;;;;;;;1.92;0.50;;;5.90;99.90;;;;;;4900503;29;20071;-75
2023/01/15 06:37:35;;;;;;;9.43;0.80;;;5.90;99.90;;;;;;4895873;29;20062;-75
2023/01/15 06:40:01;;;;;;;2.95;0.45;;;5.90;99.90;;;;;;4910763;29;20040;-75
2023/01/15 06:47:56;;;;;;;5.45;0.85;;;5.90;99.90;;;;;;4915720;29;20361;-74
2023/01/15 06:50:22;;;;;;;4.13;0.70;;;5.90;99.90;;;;;;4914866;29;20047;-74
2023/01/15 06:52:48;;;;;;;6.80;0.80;;;5.90;99.90;;;;;;4913038;29;20089;-74
2023/01/15 06:55:13;;;;;;;3.92;0.70;;;5.90;99.90;;;;;;4942008;29;20071;-74
2023/01/15 06:57:39;;;;;;;3.20;0.88;;;5.90;99.90;;;;;;4923886;29;20134;-75
2023/01/15 07:00:09;;;;;;;4.13;0.60;;;5.90;99.90;;;;;;4893830;29;20043;-75
2023/01/15 07:02:35;;;;;;;6.50;1.08;;;5.90;99.90;;;;;;4913764;29;20047;-75
2023/01/15 07:05:01;;;;;;;3.65;0.70;;;5.90;99.90;;;;;;4942392;29;20048;-75
2023/01/15 07:07:27;;;;;;;2.97;1.02;;;5.90;99.90;;;;;;4922344;29;20048;-75
2023/01/15 07:09:52;;;;;;;3.92;1.10;;;5.90;99.90;;;;;;4903436;29;20051;-75
2023/01/15 07:12:18;;;;;;;5.22;0.82;;;5.90;99.90;;;;;;4919543;29;20048;-75
2023/01/15 07:14:44;;;;;;;4.45;1.35;;;5.90;99.90;;;;;;4919983;29;20091;-75
2023/01/15 07:17:10;;;;;;;3.95;1.10;;;5.90;99.90;;;;;;4919881;29;20090;-74
2023/01/15 07:19:36;;;;;;;6.35;0.82;;;5.90;99.90;;;;;;4913750;29;20531;-74
2023/01/15 07:22:02;;;;;;;4.97;1.08;;;5.90;99.90;;;;;;4894018;29;20044;-75
2023/01/15 07:24:27;;;;;;;3.70;1.20;;;5.90;99.90;;;;;;4907484;29;20131;-75
2023/01/15 07:26:53;;;;;;;3.85;1.05;;;5.90;99.90;;;;;;4917373;29;20086;-75
2023/01/15 07:29:19;;;;;;;2.08;0.65;;;5.90;99.90;;;;;;4904099;29;20063;-75
2023/01/15 07:31:45;;;;;;;4.20;0.75;;;5.90;99.90;;;;;;4930314;29;20051;-75
2023/01/15 07:34:10;;;;;;;3.60;1.27;;;5.90;99.90;;;;;;4887820;29;20048;-75
2023/01/15 07:36:36;;;;;;;6.82;1.00;;;5.90;99.90;;;;;;4892748;29;20059;-74
2023/01/15 07:39:06;;;;;;;6.25;1.00;;;5.90;99.90;;;;;;4919168;29;20051;-75
2023/01/15 07:49:50;;;;;;;19.52;1.60;;;5.90;99.90;;;;;;4921532;29;20043;-74
2023/01/15 07:52:17;;;;;;;5.25;1.30;;;5.90;99.90;;;;;;4902046;29;20130;-74
2023/01/15 07:54:44;;;;;;;2.58;0.65;;;6.00;99.90;;;;;;4915785;29;20536;-73
2023/01/15 07:57:10;;;;;;;3.03;0.90;;;6.00;99.90;;;;;;4897444;29;20544;-73
2023/01/15 07:59:36;;;;;;;7.22;0.90;;;6.00;99.90;;;;;;4926794;29;20071;-73
2023/01/15 08:02:01;;;;;;;3.88;0.93;;;6.00;99.90;;;;;;4896597;29;20126;-75
2023/01/15 08:04:27;;;;;;;5.30;1.00;;;6.10;99.90;;;;;;4922460;29;20143;-74
2023/01/15 08:06:53;;;;;;;4.25;1.02;;;6.10;99.90;;;;;;4925583;29;20055;-74
2023/01/15 08:09:24;;;;;;;5.00;1.00;;;6.10;99.90;;;;;;4920683;29;20062;-74
2023/01/15 08:17:19;;;;;;;2.65;0.90;;;6.20;99.90;;;;;;4924924;29;20054;-74
2023/01/15 08:19:44;;;;;;;6.38;1.08;;;6.10;99.90;;;;;;4904759;29;20135;-74
2023/01/15 08:22:10;;;;;;;6.65;1.48;;;6.10;99.90;;;;;;4924476;29;20048;-74
2023/01/15 08:24:36;;;;;;;3.22;1.00;;;6.20;99.90;;;;;;4912716;29;20796;-74
2023/01/15 08:27:02;;;;;;;5.28;0.82;;;6.20;99.90;;;;;;4927267;29;20125;-73
2023/01/15 08:29:28;;;;;;;4.97;1.42;;;6.20;99.90;;;;;;4897940;29;20083;-74
2023/01/15 08:31:54;;;;;;;6.53;1.52;;;6.10;99.90;;;;;;4922132;29;20063;-74
2023/01/15 08:34:19;;;;;;;5.45;0.95;;;6.10;99.90;;;;;;4915764;29;20115;-74
2023/01/15 08:36:45;;;;;;;5.22;1.10;;;6.20;99.90;;;;;;4903505;29;20052;-74
2023/01/15 08:39:11;;;;;;;3.63;0.93;;;6.20;99.90;;;;;;4886049;29;20052;-74
2023/01/15 08:41:37;;;;;;;6.18;1.73;;;6.20;99.90;;;;;;4901642;29;20567;-74
2023/01/15 08:44:03;;;;;;;7.10;1.25;;;6.10;99.90;;;;;;4935129;29;20377;-73
2023/01/15 08:46:28;;;;;;;4.65;1.08;;;6.20;99.90;;;;;;4924541;29;20071;-73
2023/01/15 08:48:54;;;;;;;4.07;1.05;;;6.10;99.90;;;;;;4903355;29;20094;-72
2023/01/15 08:51:20;;;;;;;3.00;0.90;;;6.10;99.90;;;;;;4919930;29;20488;-73
2023/01/15 08:53:46;;;;;;;4.63;1.10;;;6.20;99.90;;;;;;4887905;29;20524;-73
2023/01/15 08:56:16;;;;;;;5.43;1.30;;;6.20;99.90;;;;;;4934618;29;20043;-72
2023/01/15 08:58:41;;;;;;;5.40;1.10;;;6.20;99.90;;;;;;4912185;29;20062;-72
2023/01/15 09:01:14;;;;;;;2.60;1.08;;;6.20;99.90;;;;;;4906160;29;20047;-73
2023/01/15 09:03:41;;;;;;;3.15;1.10;;;6.20;99.90;;;;;;4910566;29;20126;-73
2023/01/15 09:06:07;;;;;;;8.13;1.30;;;6.20;99.90;;;;;;4918684;29;20103;-74
2023/01/15 09:08:33;;;;;;;3.60;1.30;;;6.20;99.90;;;;;;4906282;29;20052;-74
2023/01/15 09:10:59;;;;;;;2.75;0.88;;;6.20;99.90;;;;;;4935354;29;20758;-74
2023/01/15 09:13:25;;;;;;;4.38;0.85;;;6.20;99.90;;;;;;4935600;29;20047;-74
2023/01/15 09:15:51;;;;;;;5.70;1.20;;;6.20;99.90;;;;;;4902738;29;20508;-73
2023/01/15 09:18:19;;;;;;;3.28;0.90;;;6.20;99.90;;;;;;4917312;29;20055;-74
2023/01/15 09:20:48;;;;;;;5.72;1.10;;;6.20;99.90;;;;;;4931099;29;20056;-74
2023/01/15 09:23:14;;;;;;;5.97;1.17;;;6.20;99.90;;;;;;4912888;29;20532;-75
2023/01/15 09:25:41;;;;;;;5.63;1.05;;;6.20;99.90;;;;;;4928090;29;20460;-73
2023/01/15 09:28:07;;;;;;;4.63;0.82;;;6.20;99.90;;;;;;4909708;29;20056;-73
2023/01/15 09:30:33;;;;;;;2.78;0.88;;;6.20;99.90;;;;;;4918811;29;20102;-73
2023/01/15 09:32:59;;;;;;;2.55;0.80;;;6.20;99.90;;;;;;4915941;29;20075;-72
2023/01/15 09:35:24;;;;;;;5.13;0.80;;;6.20;99.90;;;;;;4911816;29;20723;-73
2023/01/15 09:37:53;;;;;;;5.30;1.00;;;6.20;99.90;;;;;;4902342;29;20047;-73
2023/01/15 09:40:46;;;;;;;4.65;0.98;;;6.20;99.90;;;;;;4895327;29;20755;-72
2023/01/15 09:44:10;;;;;;;4.07;1.10;;;6.20;99.90;;;;;;4920397;29;20142;-72
2023/01/15 09:47:00;;;;;;;6.10;1.42;;;6.20;99.90;;;;;;4888181;29;20051;-72
2023/01/15 09:49:40;;;;;;;4.90;0.90;;;6.20;99.90;;;;;;4896785;29;20041;-73
2023/01/15 09:52:09;;;;;;;3.00;1.20;;;6.10;99.90;;;;;;4908864;29;20362;-73
2023/01/15 09:55:13;;;;;;;2.72;0.90;;;6.10;99.90;;;;;;4926776;29;20047;-73
2023/01/15 09:57:39;;;;;;;5.53;0.80;;;6.10;99.90;;;;;;4912062;29;20119;-73
2023/01/15 10:00:05;;;;;;;8.65;2.65;;;6.20;99.90;;;;;;4906057;29;20118;-73
2023/01/15 10:02:44;;;;;;;5.07;1.15;;;6.20;99.90;;;;;;4919776;29;20056;-73
2023/01/15 10:05:41;;;;;;;5.07;1.75;;;6.20;99.90;;;;;;4918001;29;20055;-74
2023/01/15 10:08:25;;;;;;;4.93;1.80;;;6.30;99.90;;;;;;4891214;29;20113;-74
2023/01/15 10:10:56;;;;;;;4.82;2.30;;;6.30;99.90;;;;;;4919898;29;20054;-74
2023/01/15 10:13:42;;;;;;;7.75;1.00;;;6.30;99.90;;;;;;4914604;29;20055;-75
2023/01/15 10:16:09;;;;;;;6.70;1.55;;;6.40;99.90;;;;;;4901677;29;20120;-75
2023/01/15 10:18:34;;;;;;;3.63;1.20;;;6.40;99.90;;;;;;4894976;29;20094;-74
2023/01/15 10:21:39;;;;;;;4.13;1.10;;;6.40;99.90;;;;;;4919232;29;20075;-75
2023/01/15 10:24:13;;;;;;;6.13;0.98;;;6.40;99.90;;;;;;4914243;29;20052;-74
2023/01/15 10:26:43;;;;;;;4.22;0.80;;;6.50;99.90;;;;;;4918193;29;20040;-75
2023/01/15 10:29:27;;;;;;;2.22;0.75;;;6.50;99.90;;;;;;4925475;29;20127;-73
2023/01/15 10:31:56;;;;;;;3.22;0.60;;;6.50;99.90;;;;;;4931597;29;20074;-73
2023/01/15 10:34:27;;;;;;;6.28;0.90;;;6.60;99.90;;;;;;4905810;29;20338;-72
2023/01/15 10:37:07;;;;;;;1.40;0.70;;;6.60;99.90;;;;;;4933019;29;20369;-73
2023/01/15 10:40:13;;;;;;;2.50;0.80;;;6.40;99.90;;;;;;4933836;29;20756;-73
2023/01/15 10:43:01;;;;;;;3.40;0.70;;;6.30;99.90;;;;;;4923522;29;20039;-73
2023/01/15 10:45:48;;;;;;;1.88;0.75;;;6.20;99.90;;;;;;4928914;29;20039;-71
2023/01/15 10:48:28;;;;;;;2.08;1.13;;;6.10;99.90;;;;;;4932741;29;20058;-72
2023/01/15 10:50:54;;;;;;;3.97;1.17;;;6.10;99.90;;;;;;4918328;29;20384;-72
2023/01/15 10:53:50;;;;;;;4.30;0.88;;;6.00;99.90;;;;;;4914645;29;20058;-72
2023/01/15 10:56:40;;;;;;;5.95;1.92;;;6.00;99.90;;;;;;4945179;29;20060;-72
2023/01/15 10:59:21;;;;;;;4.40;1.00;;;5.90;99.90;;;;;;4918156;29;20047;-74
2023/01/15 11:01:48;;;;;;;2.65;1.05;;;6.00;99.90;;;;;;4919311;29;20463;-73
2023/01/15 11:04:14;;;;;;;1.80;0.65;;;6.00;99.90;;;;;;4902272;29;20578;-73
2023/01/15 11:06:40;;;;;;;1.52;0.75;;;6.00;99.90;;;;;;4917852;29;20065;-73
2023/01/15 11:09:14;;;;;;;2.55;0.70;;;6.00;99.90;;;;;;4899454;29;20218;-73
2023/01/15 11:20:30;;;;;;;1.98;0.98;;;6.10;99.90;;;;;;4912137;29;20674;-72
2023/01/15 11:22:57;;;;;;;3.20;0.98;;;6.10;99.90;;;;;;4919003;29;20047;-73
2023/01/15 11:25:30;;;;;;;2.17;0.93;;;6.10;99.90;;;;;;4902211;29;20043;-73
2023/01/15 11:27:59;;;;;;;4.50;1.17;;;6.10;99.90;;;;;;4911607;29;20048;-73
2023/01/15 11:30:33;;;;;;;5.00;1.00;;;6.20;99.90;;;;;;4911678;29;20064;-73
2023/01/15 11:33:02;;;;;;;3.88;1.08;;;6.40;99.90;;;;;;4927398;29;20059;-72
2023/01/15 11:35:28;;;;;;;3.75;1.17;;;6.40;99.90;;;;;;4905865;29;20056;-74
2023/01/15 11:38:13;;;;;;;4.35;1.05;;;6.20;99.90;;;;;;4910765;29;20076;-73
2023/01/15 11:40:39;;;;;;;4.72;1.05;;;6.70;99.90;;;;;;4916157;29;20044;-73
2023/01/15 11:51:40;;;;;;;6.10;1.10;;;9.00;99.90;;;;;;4907786;29;20077;-73
2023/01/15 11:54:08;;;;;;;4.50;0.90;;;10.10;99.90;;;;;;4922099;29;20075;-74
2023/01/15 11:56:34;;;;;;;5.35;1.30;;;10.90;97.70;;;;;;4920211;29;20044;-74
2023/01/15 11:59:08;;;;;;;4.07;1.58;;;10.30;98.60;;;;;;4919709;29;20112;-74
2023/01/15 12:01:41;;;;;;;4.35;1.15;;;9.90;99.90;;;;;;4904763;29;20107;-74
2023/01/15 12:04:29;;;;;;;3.42;1.13;;;9.20;99.90;;;;;;4936373;29;20051;-74
2023/01/15 12:06:55;;;;;;;3.95;1.25;;;9.10;99.90;;;;;;4924014;29;20047;-73
2023/01/15 12:09:32;;;;;;;4.53;1.25;;;9.80;99.90;;;;;;4948193;28;20051;-74
2023/01/15 12:12:01;;;;;;;5.20;1.05;;;11.00;96.10;;;;;;4919979;29;20469;-74
2023/01/15 12:14:38;;;;;;;5.00;1.45;;;10.20;98.00;;;;;;4936725;29;20063;-73
2023/01/15 12:17:43;;;;;;;4.35;1.08;;;9.30;99.90;;;;;;4922122;29;20048;-73
2023/01/15 12:20:15;;;;;;;2.88;1.08;;;9.10;99.90;;;;;;4921811;29;20044;-74
2023/01/15 12:22:41;;;;;;;5.28;1.33;;;9.00;99.90;;;;;;4935672;29;20044;-74
2023/01/15 12:25:25;;;;;;;3.58;1.20;;;8.60;99.90;;;;;;4936923;29;20179;-74
2023/01/15 12:28:12;;;;;;;2.78;0.90;;;8.60;99.90;;;;;;4930402;29;20051;-72
2023/01/15 12:30:56;;;;;;;3.22;1.02;;;8.60;99.90;;;;;;4914335;29;20064;-72
2023/01/15 12:33:43;;;;;;;6.90;1.20;;;8.50;99.90;;;;;;4935309;29;20507;-73
2023/01/15 12:36:19;;;;;;;3.80;1.25;;;8.50;99.90;;;;;;4935303;29;20058;-71
2023/01/15 12:38:59;;;;;;;4.18;1.10;;;8.40;99.90;;;;;;4895145;29;20098;-71
2023/01/15 12:44:59;;;;;;;8.05;1.83;;;8.40;99.90;;;;;;4905238;29;20048;-72
2023/01/15 12:45:04;;;;;;;4.78;0.95;;;8.80;99.90;;;;;;4935104;29;20052;-72
2023/01/15 12:47:36;;;;;;;3.10;0.80;;;8.60;99.90;;;;;;4934360;29;20075;-72
2023/01/15 12:50:13;;;;;;;5.63;1.17;;;8.30;99.90;;;;;;4922916;29;20056;-72
2023/01/15 12:52:40;;;;;;;3.55;1.23;;;7.90;99.90;;;;;;4925000;29;20051;-73
2023/01/15 12:55:13;;;;;;;5.07;1.50;;;7.70;99.60;;;;;;4901031;29;20052;-72
2023/01/15 12:57:43;;;;;;;2.88;1.00;;;8.30;97.60;;;;;;4914755;29;20059;-73
2023/01/15 13:00:08;;;;;;;3.50;1.38;;;8.40;98.40;;;;;;4903670;29;20496;-73
2023/01/15 13:02:46;;;;;;;4.68;1.00;;;8.10;99.00;;;;;;4932925;29;20158;-72
2023/01/15 13:05:18;;;;;;;4.82;1.88;;;7.90;98.50;;;;;;4917807;29;20054;-73
2023/01/15 13:08:00;;;;;;;4.68;1.23;;;8.20;95.50;;;;;;4919092;29;20055;-73
2023/01/15 13:10:27;;;;;;;5.25;1.00;;;8.20;94.90;;;;;;4918816;29;20071;-73
2023/01/15 13:12:54;;;;;;;6.18;1.02;;;7.90;95.50;;;;;;4907380;29;20059;-72
2023/01/15 13:15:21;;;;;;;3.05;1.10;;;7.70;94.70;;;;;;4922710;29;20135;-72
2023/01/15 13:17:54;;;;;;;6.63;0.90;;;7.70;95.40;;;;;;4904407;29;20055;-73
2023/01/15 13:20:50;;;;;;;27.83;25.63;;;7.60;95.20;;;;;;4934282;29;20051;-72
2023/01/15 13:23:34;;;;;;;6.40;1.45;;;7.60;95.00;;;;;;4930098;29;20071;-72
2023/01/15 13:26:40;;;;;;;4.13;0.88;;;7.60;95.40;;;;;;4933897;29;20047;-73
2023/01/15 13:29:15;;;;;;;4.93;1.00;;;7.60;94.70;;;;;;4932465;29;20078;-73
2023/01/15 13:32:02;;;;;;;3.25;1.00;;;7.50;95.10;;;;;;4934043;29;20055;-73
2023/01/15 13:34:54;;;;;;;35.10;32.83;;;7.60;94.90;;;;;;4909592;29;20107;-73
2023/01/15 13:37:55;;;;;;;83.60;77.88;;;7.90;93.90;;;;;;4918378;29;20059;-73
2023/01/15 13:40:21;;;;;;;4.63;1.30;;;8.20;91.70;;;;;;4909026;29;20077;-75
2023/01/15 13:42:47;;;;;;;5.10;1.23;;;7.90;91.80;;;;;;4922950;29;20051;-73
2023/01/15 13:45:25;;;;;;;3.88;1.25;;;7.90;93.20;;;;;;4910078;29;20521;-74
2023/01/15 13:47:56;;;;;;;6.00;1.85;;;7.70;94.00;;;;;;4927957;29;20464;-74
2023/01/15 13:50:26;;;;;;;;;;;7.50;94.30;;;;;;4919166;29;20051;-74
2023/01/15 13:53:02;;;;;;;9.15;2.10;;;7.50;94.80;;;;;;4926863;29;19915;-75
2023/01/15 13:55:52;;;;;;;6.45;1.80;;;7.40;95.20;;;;;;4918974;29;20062;-71
2023/01/15 13:58:26;;;;;;;5.45;1.35;;;7.50;99.30;;;;;;4922014;29;20782;-74
2023/01/15 14:01:06;;;;;;;2.80;1.00;;;7.40;94.90;;;;;;4934931;29;20051;-75
2023/01/15 14:03:34;;;;;;;4.13;1.00;;;7.40;96.10;;;;;;4933842;29;20043;-74